Time;durP1;ratioP1;P1;durP2;ratioP2;P2;SDS_P1;SDS_P2;PMS_P1;PMS_P2;Temp;Humidity;BMP_temperature;BMP_pressure;BME280_temperature;BME280_humidity;BME280_pressure;Samples;Min_cycle;Max_cycle;Signal;HPM_P1;HPM_P2
2023/10/21 00:01:07;;;;;;;16.30;14.70;;;;;;;;;;4956787;28;20226;-73
2023/10/21 00:03:37;;;;;;;18.17;15.40;;;;;;;;;;4982242;28;20222;-73
2023/10/21 00:06:04;;;;;;;18.00;16.17;;;;;;;;;;4979063;28;20236;-71
2023/10/21 00:08:30;;;;;;;17.90;16.03;;;;;;;;;;4989566;28;20279;-74
2023/10/21 00:11:09;;;;;;;18.17;16.30;;;;;;;;;;4958229;28;20627;-73
2023/10/21 00:13:39;;;;;;;17.30;15.50;;;;;;;;;;4958959;28;20223;-73
2023/10/21 00:16:07;;;;;;;21.13;17.10;;;;;;;;;;4948912;28;20711;-73
2023/10/21 00:18:35;;;;;;;18.43;16.47;;;;;;;;;;4974643;28;20217;-73
2023/10/21 00:21:01;;;;;;;19.33;16.30;;;;;;;;;;4959147;28;20217;-74
2023/10/21 00:23:29;;;;;;;20.47;16.03;;;;;;;;;;4975755;28;20769;-74
2023/10/21 00:25:55;;;;;;;17.67;15.83;;;;;;;;;;4974018;28;20261;-73
2023/10/21 00:28:20;;;;;;;20.50;16.10;;;;;;;;;;4968577;28;20218;-74
2023/10/21 00:30:47;;;;;;;21.33;16.53;;;;;;;;;;4979288;28;20230;-72
2023/10/21 00:33:13;;;;;;;17.83;15.93;;;;;;;;;;4957114;28;20245;-73
2023/10/21 00:35:39;;;;;;;18.83;16.70;;;;;;;;;;4942383;28;20249;-73
2023/10/21 00:38:04;;;;;;;17.77;15.87;;;;;;;;;;4971105;28;20247;-73
2023/10/21 00:40:32;;;;;;;17.40;15.63;;;;;;;;;;4973496;28;20225;-73
2023/10/21 00:43:00;;;;;;;18.73;16.10;;;;;;;;;;4980675;28;20225;-73
2023/10/21 00:45:26;;;;;;;17.33;15.60;;;;;;;;;;4959311;28;20607;-73
2023/10/21 00:47:54;;;;;;;17.87;15.97;;;;;;;;;;4968137;28;20225;-74
2023/10/21 00:50:20;;;;;;;20.90;17.33;;;;;;;;;;4957079;28;20221;-73
2023/10/21 00:52:48;;;;;;;19.17;16.83;;;;;;;;;;4964011;28;20229;-72
2023/10/21 00:55:17;;;;;;;19.10;16.67;;;;;;;;;;4956827;28;20218;-73
2023/10/21 00:57:42;;;;;;;18.17;16.37;;;;;;;;;;4964910;28;20252;-74
2023/10/21 01:00:16;;;;;;;19.17;16.30;;;;;;;;;;4990571;28;20229;-73
2023/10/21 01:02:44;;;;;;;19.67;16.57;;;;;;;;;;4975249;28;20225;-74
2023/10/21 01:05:10;;;;;;;22.60;17.00;;;;;;;;;;4955912;28;20738;-73
2023/10/21 01:07:42;;;;;;;20.43;17.20;;;;;;;;;;4956402;28;20225;-73
2023/10/21 01:10:15;;;;;;;20.13;16.70;;;;;;;;;;4954462;28;20236;-73
2023/10/21 01:12:40;;;;;;;21.07;16.57;;;;;;;;;;4947848;28;20233;-73
2023/10/21 01:15:07;;;;;;;18.47;16.50;;;;;;;;;;4972071;28;20233;-73
2023/10/21 01:17:32;;;;;;;19.93;17.00;;;;;;;;;;4964374;28;20229;-74
2023/10/21 01:20:00;;;;;;;19.97;17.17;;;;;;;;;;4946949;28;20288;-73
2023/10/21 01:22:28;;;;;;;20.07;17.97;;;;;;;;;;4965659;28;20225;-73
2023/10/21 01:24:56;;;;;;;21.27;17.40;;;;;;;;;;4956286;28;20747;-73
2023/10/21 01:27:23;;;;;;;24.30;18.33;;;;;;;;;;4962049;28;20221;-73
2023/10/21 01:29:56;;;;;;;21.00;18.70;;;;;;;;;;4958651;28;20805;-72
2023/10/21 01:32:24;;;;;;;19.37;17.30;;;;;;;;;;4956555;28;20224;-73
2023/10/21 01:34:50;;;;;;;22.83;18.57;;;;;;;;;;4960886;28;20316;-72
2023/10/21 01:37:20;;;;;;;20.57;18.00;;;;;;;;;;4960540;28;20236;-73
2023/10/21 01:39:48;;;;;;;24.43;19.27;;;;;;;;;;4958521;28;20221;-73
2023/10/21 01:42:18;;;;;;;27.00;19.30;;;;;;;;;;4955101;28;20220;-73
2023/10/21 01:44:46;;;;;;;21.50;18.13;;;;;;;;;;4941141;28;20225;-72
2023/10/21 01:47:24;;;;;;;36.33;18.97;;;;;;;;;;4962033;28;20256;-72
2023/10/21 01:49:52;;;;;;;24.10;18.53;;;;;;;;;;4967042;28;20595;-72
2023/10/21 01:52:20;;;;;;;31.37;19.07;;;;;;;;;;4971911;28;20221;-72
2023/10/21 01:54:48;;;;;;;21.87;17.90;;;;;;;;;;4969032;28;20225;-72
2023/10/21 01:57:16;;;;;;;28.53;18.00;;;;;;;;;;4955802;28;20722;-72
2023/10/21 01:59:41;;;;;;;30.70;18.67;;;;;;;;;;4963551;28;20229;-73
2023/10/21 02:02:07;;;;;;;32.37;18.17;;;;;;;;;;4959743;28;20225;-74
2023/10/21 02:04:37;;;;;;;29.90;18.93;;;;;;;;;;4972425;28;20694;-73
2023/10/21 02:07:09;;;;;;;39.20;19.30;;;;;;;;;;4955600;28;20233;-73
2023/10/21 02:09:40;;;;;;;26.20;18.33;;;;;;;;;;4973461;28;20608;-73
2023/10/21 02:12:06;;;;;;;39.60;19.63;;;;;;;;;;4955637;28;20702;-73
2023/10/21 02:14:34;;;;;;;41.53;18.93;;;;;;;;;;4972509;28;20228;-74
2023/10/21 02:16:59;;;;;;;39.57;17.63;;;;;;;;;;4956304;28;20256;-74
2023/10/21 02:19:27;;;;;;;32.90;18.73;;;;;;;;;;4970470;28;20602;-73
2023/10/21 02:21:52;;;;;;;31.40;18.93;;;;;;;;;;4963599;28;20225;-72
2023/10/21 02:24:18;;;;;;;56.33;18.97;;;;;;;;;;4955581;28;20224;-73
2023/10/21 02:26:44;;;;;;;35.47;18.63;;;;;;;;;;4947170;28;20218;-73
2023/10/21 02:29:12;;;;;;;36.67;19.00;;;;;;;;;;4976150;28;20662;-72
2023/10/21 02:31:42;;;;;;;26.40;18.90;;;;;;;;;;4956700;28;20318;-73
2023/10/21 02:34:08;;;;;;;49.77;19.40;;;;;;;;;;4954822;28;20221;-73
2023/10/21 02:36:36;;;;;;;27.57;18.80;;;;;;;;;;4972428;28;20222;-73
2023/10/21 02:39:07;;;;;;;27.63;19.20;;;;;;;;;;4965653;28;20372;-73
2023/10/21 02:41:33;;;;;;;21.13;18.53;;;;;;;;;;4961150;28;20349;-73
2023/10/21 02:43:59;;;;;;;56.80;20.83;;;;;;;;;;4955685;28;20734;-73
2023/10/21 02:46:24;;;;;;;37.40;19.33;;;;;;;;;;4987036;28;20225;-74
2023/10/21 02:48:50;;;;;;;25.43;19.20;;;;;;;;;;4969776;28;20233;-73
2023/10/21 02:51:17;;;;;;;35.73;19.27;;;;;;;;;;4959226;28;20588;-73
2023/10/21 02:53:43;;;;;;;47.50;19.47;;;;;;;;;;4959548;28;20233;-74
2023/10/21 02:56:09;;;;;;;42.07;20.70;;;;;;;;;;4960154;28;20455;-73
2023/10/21 02:58:35;;;;;;;35.70;20.93;;;;;;;;;;4956356;28;20675;-73
2023/10/21 03:01:13;;;;;;;26.00;19.43;;;;;;;;;;4953518;28;20232;-74
2023/10/21 03:03:51;;;;;;;29.37;19.73;;;;;;;;;;4985414;28;20295;-72
2023/10/21 03:06:21;;;;;;;43.90;20.30;;;;;;;;;;4950228;28;20225;-73
2023/10/21 03:08:47;;;;;;;37.27;20.93;;;;;;;;;;4956576;28;20233;-73
2023/10/21 03:11:14;;;;;;;49.13;21.80;;;;;;;;;;4969428;28;20300;-74
2023/10/21 03:13:39;;;;;;;32.47;21.30;;;;;;;;;;4971947;28;20225;-73
2023/10/21 03:16:06;;;;;;;33.73;20.03;;;;;;;;;;4965216;28;20247;-73
2023/10/21 03:18:34;;;;;;;41.87;19.87;;;;;;;;;;4953684;28;20248;-73
2023/10/21 03:21:03;;;;;;;42.47;21.83;;;;;;;;;;4987015;28;20220;-73
2023/10/21 03:23:29;;;;;;;32.93;20.80;;;;;;;;;;4955242;28;20229;-73
2023/10/21 03:25:58;;;;;;;48.20;22.17;;;;;;;;;;4961680;28;20718;-73
2023/10/21 03:28:26;;;;;;;25.00;20.40;;;;;;;;;;4961409;28;20226;-72
2023/10/21 03:31:01;;;;;;;37.27;22.00;;;;;;;;;;4961629;28;20778;-73
2023/10/21 03:33:29;;;;;;;35.90;21.13;;;;;;;;;;4954972;28;20626;-73
2023/10/21 03:35:59;;;;;;;28.13;20.80;;;;;;;;;;4970675;28;20311;-73
2023/10/21 03:38:27;;;;;;;29.50;21.03;;;;;;;;;;4963341;28;20241;-73
2023/10/21 03:41:05;;;;;;;39.03;21.40;;;;;;;;;;4960988;28;20240;-73
2023/10/21 03:43:34;;;;;;;43.13;20.80;;;;;;;;;;4960404;28;20710;-72
2023/10/21 03:46:04;;;;;;;38.77;22.93;;;;;;;;;;4970672;28;20221;-73
2023/10/21 03:48:31;;;;;;;33.87;20.93;;;;;;;;;;4955007;28;20232;-73
2023/10/21 03:51:11;;;;;;;40.83;21.27;;;;;;;;;;4975056;28;20307;-73
2023/10/21 03:53:40;;;;;;;35.23;21.80;;;;;;;;;;4986737;28;20236;-73
2023/10/21 03:56:13;;;;;;;45.27;21.93;;;;;;;;;;4960359;28;20213;-73
2023/10/21 03:58:39;;;;;;;48.50;22.87;;;;;;;;;;4971328;28;20656;-73
2023/10/21 04:04:52;;;;;;;48.60;22.77;;;;;;;;;;4988093;28;20375;-73
2023/10/21 04:07:20;;;;;;;35.83;21.50;;;;;;;;;;4944783;28;20229;-72
2023/10/21 04:09:48;;;;;;;62.93;24.67;;;;;;;;;;4955426;28;20244;-73
2023/10/21 04:12:16;;;;;;;33.67;22.60;;;;;;;;;;4970311;28;20713;-73
2023/10/21 04:14:42;;;;;;;58.17;24.03;;;;;;;;;;4945717;28;20225;-72
2023/10/21 04:17:10;;;;;;;48.70;23.23;;;;;;;;;;4963049;28;20225;-73
2023/10/21 04:19:39;;;;;;;33.97;22.33;;;;;;;;;;4962104;28;20308;-72
2023/10/21 04:22:05;;;;;;;38.90;22.43;;;;;;;;;;4967497;28;20288;-73
2023/10/21 04:24:30;;;;;;;41.87;24.57;;;;;;;;;;4971016;28;20711;-72
2023/10/21 04:26:56;;;;;;;43.03;23.87;;;;;;;;;;4970370;28;20973;-73
2023/10/21 04:29:24;;;;;;;30.70;23.00;;;;;;;;;;4961242;28;20655;-73
2023/10/21 04:31:54;;;;;;;49.67;24.23;;;;;;;;;;4976605;28;20213;-73
2023/10/21 04:34:25;;;;;;;30.20;23.20;;;;;;;;;;4984027;28;20218;-73
2023/10/21 04:36:50;;;;;;;34.83;22.27;;;;;;;;;;4987208;28;20702;-73
2023/10/21 04:39:18;;;;;;;44.33;23.47;;;;;;;;;;4970116;28;20220;-73
2023/10/21 04:41:46;;;;;;;42.80;23.83;;;;;;;;;;4975323;28;20244;-73
2023/10/21 04:44:14;;;;;;;27.80;23.03;;;;;;;;;;4977736;28;20214;-73
2023/10/21 04:46:44;;;;;;;41.50;22.53;;;;;;;;;;4972883;28;20722;-73
2023/10/21 04:49:12;;;;;;;33.50;22.17;;;;;;;;;;4979235;28;20272;-73
2023/10/21 04:51:40;;;;;;;25.30;21.17;;;;;;;;;;4957601;28;20221;-73
2023/10/21 04:54:08;;;;;;;22.70;19.87;;;;;;;;;;4972435;28;20624;-73
2023/10/21 04:56:35;;;;;;;22.37;19.77;;;;;;;;;;4956984;28;20264;-72
2023/10/21 04:59:03;;;;;;;24.87;19.60;;;;;;;;;;4958864;28;20596;-73
2023/10/21 05:01:34;;;;;;;22.90;19.43;;;;;;;;;;4964187;28;20221;-72
2023/10/21 05:03:59;;;;;;;20.57;18.37;;;;;;;;;;4973047;28;20309;-73
2023/10/21 05:06:27;;;;;;;21.57;19.23;;;;;;;;;;4972882;28;21085;-72
2023/10/21 05:08:55;;;;;;;21.50;19.20;;;;;;;;;;4981675;28;20579;-73
2023/10/21 05:11:21;;;;;;;23.47;20.13;;;;;;;;;;4987656;28;20218;-72
2023/10/21 05:13:51;;;;;;;25.07;20.73;;;;;;;;;;4972877;28;20225;-73
2023/10/21 05:16:17;;;;;;;22.17;19.00;;;;;;;;;;4958025;28;20229;-72
2023/10/21 05:18:47;;;;;;;22.50;19.97;;;;;;;;;;4963653;28;20217;-72
2023/10/21 05:21:15;;;;;;;26.60;21.10;;;;;;;;;;4964705;28;20244;-73
2023/10/21 05:23:40;;;;;;;25.17;21.03;;;;;;;;;;4956634;28;20788;-72
2023/10/21 05:26:08;;;;;;;23.07;20.57;;;;;;;;;;4978463;28;20226;-72
2023/10/21 05:28:34;;;;;;;25.10;21.67;;;;;;;;;;4975188;28;20257;-71
2023/10/21 05:31:01;;;;;;;26.37;22.23;;;;;;;;;;4955462;28;20256;-73
2023/10/21 05:33:29;;;;;;;24.97;22.37;;;;;;;;;;4958119;28;20244;-73
2023/10/21 05:36:03;;;;;;;29.83;23.60;;;;;;;;;;4973509;28;20226;-72
2023/10/21 05:38:28;;;;;;;26.53;22.87;;;;;;;;;;4957435;28;20260;-72
2023/10/21 05:40:57;;;;;;;30.00;24.00;;;;;;;;;;4972374;28;20229;-72
2023/10/21 05:43:23;;;;;;;26.93;22.53;;;;;;;;;;4947326;28;20222;-73
2023/10/21 05:45:48;;;;;;;31.30;22.90;;;;;;;;;;4957376;28;20256;-72
2023/10/21 05:48:14;;;;;;;30.97;23.83;;;;;;;;;;4971189;28;20221;-72
2023/10/21 05:50:45;;;;;;;32.60;23.53;;;;;;;;;;4957925;28;20229;-73
2023/10/21 05:53:10;;;;;;;29.53;23.63;;;;;;;;;;4956951;28;20695;-72
2023/10/21 05:55:42;;;;;;;28.53;22.90;;;;;;;;;;4948363;28;20236;-73
2023/10/21 05:58:12;;;;;;;26.97;23.23;;;;;;;;;;4988643;28;20241;-71
2023/10/21 06:00:38;;;;;;;29.97;23.97;;;;;;;;;;4965911;28;20230;-73
2023/10/21 06:03:06;;;;;;;30.53;23.80;;;;;;;;;;4941247;28;20906;-73
2023/10/21 06:05:33;;;;;;;30.77;23.90;;;;;;;;;;4963543;28;20226;-73
2023/10/21 06:07:59;;;;;;;29.60;23.37;;;;;;;;;;4965436;28;20243;-72
2023/10/21 06:10:29;;;;;;;26.77;22.37;;;;;;;;;;4974412;28;20707;-72
2023/10/21 06:12:54;;;;;;;27.17;22.73;;;;;;;;;;4979063;28;20209;-73
2023/10/21 06:15:20;;;;;;;31.67;24.93;;;;;;;;;;4969418;28;20319;-73
2023/10/21 06:17:48;;;;;;;26.37;22.43;;;;;;;;;;4956863;28;20221;-73
2023/10/21 06:20:14;;;;;;;26.87;23.10;;;;;;;;;;4958681;28;20299;-73
2023/10/21 06:22:39;;;;;;;26.53;21.80;;;;;;;;;;4988699;28;20612;-72
2023/10/21 06:25:05;;;;;;;25.77;21.77;;;;;;;;;;4989592;28;20228;-73
2023/10/21 06:27:36;;;;;;;25.20;20.07;;;;;;;;;;4955502;28;20247;-73
2023/10/21 06:30:05;;;;;;;26.63;21.60;;;;;;;;;;4988356;28;20240;-73
2023/10/21 06:32:31;;;;;;;23.50;20.67;;;;;;;;;;4957766;28;20335;-74
2023/10/21 06:34:57;;;;;;;23.10;19.60;;;;;;;;;;4972305;28;20222;-73
2023/10/21 06:37:22;;;;;;;25.33;20.67;;;;;;;;;;4962019;28;20233;-73
2023/10/21 06:39:48;;;;;;;20.37;18.03;;;;;;;;;;4962382;28;20648;-74
2023/10/21 06:42:16;;;;;;;21.10;18.50;;;;;;;;;;4945390;28;20229;-74
2023/10/21 06:44:46;;;;;;;18.70;16.70;;;;;;;;;;4965817;28;20705;-73
2023/10/21 06:47:12;;;;;;;18.57;16.67;;;;;;;;;;4971040;28;20222;-72
2023/10/21 06:49:37;;;;;;;17.93;15.97;;;;;;;;;;4956724;28;20252;-73
2023/10/21 06:52:05;;;;;;;18.53;16.13;;;;;;;;;;4972091;28;20222;-74
2023/10/21 06:54:31;;;;;;;17.50;15.13;;;;;;;;;;4948336;28;20228;-72
2023/10/21 06:56:56;;;;;;;16.73;15.03;;;;;;;;;;4955823;28;20230;-72
2023/10/21 06:59:24;;;;;;;15.53;13.93;;;;;;;;;;4971058;28;20232;-74
2023/10/21 07:01:52;;;;;;;16.57;14.97;;;;;;;;;;4954095;28;20304;-72
2023/10/21 07:04:21;;;;;;;15.13;13.73;;;;;;;;;;4970895;28;20227;-73
2023/10/21 07:06:48;;;;;;;15.60;14.00;;;;;;;;;;4985813;28;20308;-73
2023/10/21 07:09:13;;;;;;;14.33;12.90;;;;;;;;;;4988604;28;20691;-73
2023/10/21 07:11:42;;;;;;;14.83;13.37;;;;;;;;;;4955953;28;20249;-73
2023/10/21 07:14:12;;;;;;;13.83;12.40;;;;;;;;;;4966401;28;20292;-72
2023/10/21 07:16:44;;;;;;;14.17;12.87;;;;;;;;;;4966503;28;20717;-73
2023/10/21 07:19:10;;;;;;;13.93;12.53;;;;;;;;;;4978645;28;20276;-73
2023/10/21 07:21:41;;;;;;;14.63;13.03;;;;;;;;;;4931016;28;20272;-73
2023/10/21 07:24:08;;;;;;;13.37;12.07;;;;;;;;;;4971572;28;20221;-73
2023/10/21 07:26:35;;;;;;;13.87;12.47;;;;;;;;;;4961069;28;20221;-73
2023/10/21 07:29:08;;;;;;;13.07;11.87;;;;;;;;;;4986350;28;20240;-73
2023/10/21 07:31:36;;;;;;;13.73;12.40;;;;;;;;;;4966631;28;20218;-73
2023/10/21 07:34:02;;;;;;;13.20;11.97;;;;;;;;;;4960151;28;20237;-73
2023/10/21 07:36:34;;;;;;;12.90;11.70;;;;;;;;;;4938664;28;20794;-73
2023/10/21 07:39:04;;;;;;;13.27;11.97;;;;;;;;;;4954871;28;20222;-73
2023/10/21 07:41:33;;;;;;;14.13;12.73;;;;;;;;;;4970529;28;20222;-73
2023/10/21 07:44:02;;;;;;;14.67;13.27;;;;;;;;;;4985768;28;20612;-73
2023/10/21 07:46:28;;;;;;;15.43;13.87;;;;;;;;;;4945661;28;20670;-72
2023/10/21 07:48:56;;;;;;;14.53;13.03;;;;;;;;;;4986630;28;20229;-72
2023/10/21 07:51:24;;;;;;;14.70;13.27;;;;;;;;;;4965806;28;20217;-73
2023/10/21 07:53:50;;;;;;;13.80;12.60;;;;;;;;;;4988077;28;20237;-72
2023/10/21 07:56:17;;;;;;;14.93;13.57;;;;;;;;;;4964647;28;20275;-72
2023/10/21 07:58:43;;;;;;;15.50;13.33;;;;;;;;;;4959148;28;20233;-72
2023/10/21 08:01:10;;;;;;;14.60;13.20;;;;;;;;;;4956810;28;20727;-72
2023/10/21 08:03:38;;;;;;;14.00;12.57;;;;;;;;;;4986011;28;20691;-72
2023/10/21 08:06:04;;;;;;;15.37;13.87;;;;;;;;;;4954347;28;20240;-73
2023/10/21 08:08:34;;;;;;;12.90;11.70;;;;;;;;;;4984508;28;20229;-72
2023/10/21 08:11:03;;;;;;;14.93;13.57;;;;;;;;;;4966943;28;20687;-72
2023/10/21 08:13:31;;;;;;;15.00;13.47;;;;;;;;;;4974435;28;20228;-72
2023/10/21 08:15:57;;;;;;;15.00;13.60;;;;;;;;;;4942582;28;20604;-73
2023/10/21 08:18:23;;;;;;;14.23;12.93;;;;;;;;;;4942000;28;20233;-71
2023/10/21 08:20:51;;;;;;;13.67;12.37;;;;;;;;;;4948027;28;20241;-72
2023/10/21 08:23:17;;;;;;;13.87;12.57;;;;;;;;;;4949006;28;20227;-72
2023/10/21 08:25:45;;;;;;;15.17;13.77;;;;;;;;;;4957838;28;20601;-73
2023/10/21 08:28:22;;;;;;;13.20;12.03;;;;;;;;;;4958260;28;21212;-72
2023/10/21 08:30:50;;;;;;;13.03;11.83;;;;;;;;;;4969012;28;20300;-71
2023/10/21 08:33:16;;;;;;;13.60;11.60;;;;;;;;;;4957910;28;20222;-72
2023/10/21 08:35:44;;;;;;;12.80;11.70;;;;;;;;;;4959887;28;20225;-72
2023/10/21 08:38:20;;;;;;;12.80;11.50;;;;;;;;;;4957144;28;20248;-71
2023/10/21 08:40:47;;;;;;;12.03;11.03;;;;;;;;;;4933773;28;20224;-72
2023/10/21 08:43:17;;;;;;;13.43;12.17;;;;;;;;;;4973502;28;20259;-73
2023/10/21 08:45:47;;;;;;;13.23;11.93;;;;;;;;;;4959812;28;20248;-72
2023/10/21 08:48:13;;;;;;;15.30;11.20;;;;;;;;;;4973246;28;20213;-72
2023/10/21 08:50:39;;;;;;;13.20;12.00;;;;;;;;;;4957636;28;20503;-71
2023/10/21 08:53:13;;;;;;;13.47;12.27;;;;;;;;;;4989446;28;20703;-71
2023/10/21 08:55:43;;;;;;;12.37;11.23;;;;;;;;;;4956511;28;20275;-72
2023/10/21 08:58:11;;;;;;;12.30;11.13;;;;;;;;;;4963609;28;20283;-73
2023/10/21 09:00:38;;;;;;;11.70;10.77;;;;;;;;;;4965074;28;20221;-73
2023/10/21 09:03:09;;;;;;;12.47;11.27;;;;;;;;;;4958411;28;20255;-72
2023/10/21 09:05:37;;;;;;;11.47;10.47;;;;;;;;;;4961552;28;20304;-72
2023/10/21 09:08:08;;;;;;;11.70;10.70;;;;;;;;;;4990236;28;20299;-72
2023/10/21 09:10:39;;;;;;;12.50;11.30;;;;;;;;;;4973742;28;20221;-70
2023/10/21 09:13:15;;;;;;;11.67;10.50;;;;;;;;;;4988628;28;20217;-72
2023/10/21 09:15:43;;;;;;;11.90;10.87;;;;;;;;;;4957338;28;20343;-71
2023/10/21 09:18:11;;;;;;;12.23;11.13;;;;;;;;;;4964447;28;20221;-73
2023/10/21 09:20:42;;;;;;;13.03;11.93;;;;;;;;;;4968314;28;20254;-72
2023/10/21 09:23:08;;;;;;;12.73;11.63;;;;;;;;;;4959418;28;20245;-71
2023/10/21 09:25:35;;;;;;;11.90;10.80;;;;;;;;;;4990271;28;20221;-71
2023/10/21 09:28:05;;;;;;;13.87;12.60;;;;;;;;;;4957219;28;20230;-72
2023/10/21 09:30:36;;;;;;;13.17;12.00;;;;;;;;;;4973046;28;20603;-71
2023/10/21 09:33:09;;;;;;;12.37;11.27;;;;;;;;;;4957045;28;20244;-72
2023/10/21 09:35:37;;;;;;;15.30;13.97;;;;;;;;;;4934281;28;20236;-72
2023/10/21 09:38:23;;;;;;;14.53;13.23;;;;;;;;;;4957845;28;20209;-71
2023/10/21 09:40:50;;;;;;;13.87;12.57;;;;;;;;;;4973955;28;20218;-71
2023/10/21 09:43:16;;;;;;;13.20;12.00;;;;;;;;;;4960532;28;20268;-71
2023/10/21 09:45:44;;;;;;;12.63;11.53;;;;;;;;;;4945877;28;20243;-72
2023/10/21 09:48:11;;;;;;;12.70;11.50;;;;;;;;;;4956483;28;20279;-73
2023/10/21 09:50:43;;;;;;;13.10;11.90;;;;;;;;;;4971985;28;20245;-72
2023/10/21 09:53:15;;;;;;;13.03;11.70;;;;;;;;;;4960373;28;20217;-73
2023/10/21 09:55:40;;;;;;;12.57;11.50;;;;;;;;;;4948327;28;20291;-74
2023/10/21 09:58:06;;;;;;;13.20;12.00;;;;;;;;;;4958231;28;20625;-73
2023/10/21 10:00:32;;;;;;;12.20;11.10;;;;;;;;;;4966645;28;20221;-72
2023/10/21 10:03:02;;;;;;;11.30;10.40;;;;;;;;;;4972824;28;20236;-73
2023/10/21 10:05:31;;;;;;;12.50;11.40;;;;;;;;;;4957031;28;20244;-73
2023/10/21 10:07:59;;;;;;;13.13;11.93;;;;;;;;;;4950136;28;20217;-72
2023/10/21 10:10:27;;;;;;;11.23;10.23;;;;;;;;;;4971874;28;20222;-72
2023/10/21 10:12:59;;;;;;;12.37;11.17;;;;;;;;;;4962436;28;20263;-73
2023/10/21 10:15:27;;;;;;;12.43;11.23;;;;;;;;;;4970579;28;20288;-72
2023/10/21 10:17:53;;;;;;;11.97;10.87;;;;;;;;;;4989661;28;20700;-72
2023/10/21 10:20:25;;;;;;;13.43;12.00;;;;;;;;;;4962499;28;20290;-71
2023/10/21 10:22:58;;;;;;;12.43;11.23;;;;;;;;;;4958200;28;20220;-73
2023/10/21 10:25:32;;;;;;;14.43;11.97;;;;;;;;;;4988700;28;20245;-72
2023/10/21 10:27:59;;;;;;;12.50;11.43;;;;;;;;;;4974161;28;20240;-73
2023/10/21 10:30:33;;;;;;;13.43;12.33;;;;;;;;;;4961099;28;20233;-73
2023/10/21 10:33:15;;;;;;;12.43;11.33;;;;;;;;;;4960138;28;20217;-72
2023/10/21 10:35:47;;;;;;;12.40;11.40;;;;;;;;;;4976876;28;20225;-73
2023/10/21 10:38:31;;;;;;;11.97;10.97;;;;;;;;;;4956921;28;20217;-73
2023/10/21 10:41:06;;;;;;;12.60;11.50;;;;;;;;;;4974339;28;20271;-73
2023/10/21 10:43:37;;;;;;;12.20;11.27;;;;;;;;;;4971986;28;20692;-74
2023/10/21 10:46:05;;;;;;;11.30;10.40;;;;;;;;;;4976271;28;20213;-73
2023/10/21 10:48:35;;;;;;;11.67;10.63;;;;;;;;;;4973797;28;20232;-72
2023/10/21 10:51:17;;;;;;;11.20;10.30;;;;;;;;;;4972553;28;20303;-72
2023/10/21 10:53:52;;;;;;;11.87;10.77;;;;;;;;;;4971644;28;20253;-73
2023/10/21 10:56:25;;;;;;;11.20;10.20;;;;;;;;;;4972570;28;20229;-72
2023/10/21 10:58:54;;;;;;;9.70;9.00;;;;;;;;;;4956674;28;20233;-72
2023/10/21 11:01:26;;;;;;;9.33;8.63;;;;;;;;;;4944617;28;20214;-72
2023/10/21 11:04:00;;;;;;;8.67;8.07;;;;;;;;;;4957523;28;20217;-72
2023/10/21 11:06:40;;;;;;;8.20;7.57;;;;;;;;;;4956069;28;20308;-73
2023/10/21 11:09:21;;;;;;;9.07;8.43;;;;;;;;;;4968311;28;20221;-73
2023/10/21 11:11:53;;;;;;;8.80;8.10;;;;;;;;;;4957873;28;20218;-72
2023/10/21 11:14:24;;;;;;;9.27;8.63;;;;;;;;;;4967801;28;20256;-73
2023/10/21 11:16:50;;;;;;;9.03;8.33;;;;;;;;;;4966226;28;20699;-72
2023/10/21 11:19:16;;;;;;;9.17;8.47;;;;;;;;;;4966875;28;20212;-73
2023/10/21 11:21:49;;;;;;;10.10;9.40;;;;;;;;;;4957294;28;20244;-73
2023/10/21 11:24:15;;;;;;;9.90;9.20;;;;;;;;;;4941296;28;20218;-74
2023/10/21 11:26:41;;;;;;;9.00;8.30;;;;;;;;;;4960572;28;20240;-73
2023/10/21 11:29:09;;;;;;;9.27;8.57;;;;;;;;;;4957731;28;20218;-73
2023/10/21 11:31:39;;;;;;;9.90;9.20;;;;;;;;;;4944586;28;20229;-73
2023/10/21 11:34:09;;;;;;;9.07;8.47;;;;;;;;;;4956521;28;20221;-73
2023/10/21 11:36:36;;;;;;;9.90;9.13;;;;;;;;;;4970897;28;20368;-73
2023/10/21 11:39:12;;;;;;;12.07;11.10;;;;;;;;;;4954791;28;20234;-73
2023/10/21 11:41:48;;;;;;;9.80;9.00;;;;;;;;;;4972603;28;20323;-73
2023/10/21 11:44:15;;;;;;;10.90;9.90;;;;;;;;;;4940246;28;20564;-73
2023/10/21 11:46:41;;;;;;;11.55;10.60;;;;;;;;;;4954023;28;20229;-73
2023/10/21 11:49:15;;;;;;;9.95;9.25;;;;;;;;;;4974745;28;20220;-73
2023/10/21 11:51:52;;;;;;;11.00;10.10;;;;;;;;;;4956885;28;20220;-72
2023/10/21 11:54:32;;;;;;;9.18;8.38;;;;;;;;;;4972382;28;20596;-73
2023/10/21 12:32:36;;;;;;;5.93;5.35;;;;;;;;;;4951104;28;20232;-72
2023/10/21 12:37:30;;;;;;;6.55;4.82;;;;;;;;;;4975888;28;20218;-74
2023/10/21 12:40:19;;;;;;;4.75;4.43;;;;;;;;;;4989291;28;20217;-73
2023/10/21 12:42:47;;;;;;;6.55;5.13;;;;;;;;;;4950419;28;20226;-73
2023/10/21 12:45:18;;;;;;;4.25;3.88;;;;;;;;;;4968818;28;20261;-72
2023/10/21 12:47:48;;;;;;;3.97;3.08;;;;;;;;;;4961591;28;20246;-73
2023/10/21 12:50:15;;;;;;;3.15;2.85;;;;;;;;;;4976761;28;20233;-73
2023/10/21 12:52:44;;;;;;;2.65;2.45;;;;;;;;;;4968687;28;20230;-72
2023/10/21 12:55:13;;;;;;;2.75;2.47;;;;;;;;;;4987078;28;20224;-73
2023/10/21 12:57:43;;;;;;;2.60;2.40;;;;;;;;;;4971885;28;20605;-72
2023/10/21 13:00:10;;;;;;;3.13;2.83;;;;;;;;;;4987655;28;20229;-73
2023/10/21 13:02:40;;;;;;;2.63;2.13;;;;;;;;;;4968574;28;20222;-73
2023/10/21 13:05:11;;;;;;;2.67;2.05;;;;;;;;;;4988287;28;20213;-72
2023/10/21 13:07:39;;;;;;;3.13;2.20;;;;;;;;;;4973998;28;20256;-73
2023/10/21 13:10:05;;;;;;;2.28;2.10;;;;;;;;;;4965035;28;20230;-73
2023/10/21 13:12:30;;;;;;;7.82;2.50;;;;;;;;;;4974661;28;20255;-73
2023/10/21 13:14:56;;;;;;;2.72;2.53;;;;;;;;;;4974311;28;20233;-73
2023/10/21 13:17:24;;;;;;;2.70;2.50;;;;;;;;;;4962907;28;20229;-73
2023/10/21 13:19:50;;;;;;;2.88;2.60;;;;;;;;;;4973246;28;20223;-73
2023/10/21 13:22:20;;;;;;;4.60;4.20;;;;;;;;;;4990159;28;20595;-73
2023/10/21 13:24:48;;;;;;;3.80;3.50;;;;;;;;;;4973685;28;20222;-73
2023/10/21 13:27:16;;;;;;;2.95;2.75;;;;;;;;;;4965243;28;20210;-74
2023/10/21 13:29:42;;;;;;;3.60;2.40;;;;;;;;;;4949020;28;20225;-73
2023/10/21 13:32:12;;;;;;;4.20;2.20;;;;;;;;;;4988433;28;20239;-73
2023/10/21 13:34:40;;;;;;;2.00;1.90;;;;;;;;;;4956740;28;20241;-74
2023/10/21 13:37:08;;;;;;;3.53;1.90;;;;;;;;;;4957915;28;20217;-74
2023/10/21 13:39:34;;;;;;;3.25;2.33;;;;;;;;;;4969876;28;20707;-73
2023/10/21 13:42:00;;;;;;;2.42;1.80;;;;;;;;;;4958658;28;20213;-73
2023/10/21 13:44:25;;;;;;;1.77;1.67;;;;;;;;;;4973851;28;20223;-73
2023/10/21 13:46:53;;;;;;;4.30;2.15;;;;;;;;;;4972936;28;20684;-73
2023/10/21 13:49:19;;;;;;;1.63;1.52;;;;;;;;;;4960070;28;20287;-73
2023/10/21 13:51:45;;;;;;;1.35;1.25;;;;;;;;;;4973926;28;20698;-73
2023/10/21 13:54:14;;;;;;;1.30;1.20;;;;;;;;;;4958106;28;20633;-73
2023/10/21 13:56:41;;;;;;;1.25;1.15;;;;;;;;;;4979717;28;20264;-73
2023/10/21 13:59:12;;;;;;;1.00;1.00;;;;;;;;;;4988744;28;20256;-73
2023/10/21 14:01:41;;;;;;;1.23;1.00;;;;;;;;;;4953447;28;20225;-73
2023/10/21 14:04:09;;;;;;;1.67;1.02;;;;;;;;;;4971627;28;20202;-73
2023/10/21 14:06:35;;;;;;;0.80;0.80;;;;;;;;;;4971510;28;20233;-73
2023/10/21 14:09:02;;;;;;;1.45;0.93;;;;;;;;;;4973360;28;20234;-73
2023/10/21 14:11:31;;;;;;;1.00;0.90;;;;;;;;;;4989367;28;20299;-73
2023/10/21 14:14:02;;;;;;;0.93;0.85;;;;;;;;;;4973583;28;20252;-73
2023/10/21 14:16:30;;;;;;;12.73;1.25;;;;;;;;;;4969769;28;20230;-73
2023/10/21 14:18:58;;;;;;;0.77;0.60;;;;;;;;;;4957534;28;20216;-74
2023/10/21 14:21:26;;;;;;;0.57;0.57;;;;;;;;;;4973336;28;20244;-73
2023/10/21 14:23:55;;;;;;;1.67;1.17;;;;;;;;;;4973905;28;20232;-72
2023/10/21 14:26:23;;;;;;;0.60;0.60;;;;;;;;;;4963319;28;20236;-72
2023/10/21 14:28:49;;;;;;;1.30;0.70;;;;;;;;;;4956881;28;20229;-73
2023/10/21 14:31:20;;;;;;;0.98;0.60;;;;;;;;;;4963071;28;20218;-73
2023/10/21 14:33:48;;;;;;;1.08;0.60;;;;;;;;;;4957470;28;20233;-72
2023/10/21 14:36:16;;;;;;;0.70;0.70;;;;;;;;;;4977699;28;20699;-72
2023/10/21 14:38:42;;;;;;;0.60;0.60;;;;;;;;;;4973697;28;20244;-72
2023/10/21 14:41:09;;;;;;;0.60;0.60;;;;;;;;;;4941307;28;20225;-73
2023/10/21 14:43:37;;;;;;;0.85;0.70;;;;;;;;;;4973078;28;20237;-73
2023/10/21 14:46:07;;;;;;;0.65;0.50;;;;;;;;;;4989427;28;20229;-73
2023/10/21 14:48:35;;;;;;;0.60;0.55;;;;;;;;;;4971161;28;20217;-73
2023/10/21 14:51:01;;;;;;;0.75;0.52;;;;;;;;;;4972977;28;20229;-74
2023/10/21 14:53:26;;;;;;;0.40;0.30;;;;;;;;;;4945808;28;20213;-73
2023/10/21 14:55:54;;;;;;;0.40;0.40;;;;;;;;;;4989398;28;20593;-74
2023/10/21 14:58:23;;;;;;;0.30;0.30;;;;;;;;;;4971986;28;20220;-73
2023/10/21 15:00:49;;;;;;;0.95;0.50;;;;;;;;;;4963026;28;20313;-73
2023/10/21 15:03:16;;;;;;;0.47;0.47;;;;;;;;;;4989648;28;20217;-73
2023/10/21 15:05:49;;;;;;;0.40;0.40;;;;;;;;;;4966030;28;20225;-74
2023/10/21 15:08:25;;;;;;;0.30;0.30;;;;;;;;;;4964360;28;20739;-74
2023/10/21 15:10:53;;;;;;;0.30;0.30;;;;;;;;;;4985016;28;20332;-73
2023/10/21 15:13:24;;;;;;;0.50;0.40;;;;;;;;;;4987458;28;20218;-74